createdAt,value
2022-12-19T00:01:58.315Z,-2.23
2022-12-19T00:04:25.961Z,-2.30
2022-12-19T00:06:54.070Z,-2.23
2022-12-19T00:09:21.567Z,-2.29
2022-12-19T00:11:49.390Z,-2.29
2022-12-19T00:14:18.301Z,-2.31
2022-12-19T00:16:45.929Z,-2.31
2022-12-19T00:19:14.009Z,-2.30
2022-12-19T00:21:41.532Z,-2.32
2022-12-19T00:24:18.081Z,-2.29
2022-12-19T00:26:49.529Z,-2.22
2022-12-19T00:29:18.796Z,-2.24
2022-12-19T00:31:46.703Z,-2.21
2022-12-19T00:34:15.631Z,-2.22
2022-12-19T00:36:43.210Z,-2.23
2022-12-19T00:39:11.590Z,-2.24
2022-12-19T00:41:41.881Z,-2.32
2022-12-19T00:44:12.191Z,-2.26
2022-12-19T00:46:44.474Z,-2.30
2022-12-19T00:49:19.413Z,-2.32
2022-12-19T00:51:47.631Z,-2.28
2022-12-19T00:54:15.556Z,-2.30
2022-12-19T00:56:43.309Z,-2.23
2022-12-19T00:59:11.015Z,-2.22
2022-12-19T01:01:42.194Z,-2.20
2022-12-19T01:04:32.455Z,-2.20
2022-12-19T01:07:03.293Z,-2.20
2022-12-19T01:09:34.843Z,-2.19
2022-12-19T01:12:24.178Z,-2.17
2022-12-19T01:14:54.566Z,-2.14
2022-12-19T01:17:25.330Z,-2.13
2022-12-19T01:19:55.367Z,-2.07
2022-12-19T01:22:22.946Z,-2.08
2022-12-19T01:24:50.496Z,-2.02
2022-12-19T01:27:18.015Z,-2.07
2022-12-19T01:29:52.136Z,-2.07
2022-12-19T01:32:21.050Z,-2.09
2022-12-19T01:34:48.591Z,-2.05
2022-12-19T01:37:17.480Z,-2.03
2022-12-19T01:39:46.225Z,-2.09
2022-12-19T01:42:16.277Z,-2.03
2022-12-19T01:45:27.662Z,-2.06
2022-12-19T01:48:06.155Z,-2.04
2022-12-19T01:50:38.976Z,-1.99
2022-12-19T01:53:12.556Z,-2.02
2022-12-19T01:55:42.426Z,-1.95
2022-12-19T01:58:12.368Z,-1.91
2022-12-19T02:00:42.268Z,-1.90
2022-12-19T02:03:16.553Z,-1.91
2022-12-19T02:05:45.581Z,-1.94
2022-12-19T02:08:15.630Z,-1.98
2022-12-19T02:10:43.205Z,-1.90
2022-12-19T02:13:11.395Z,-1.90
2022-12-19T02:15:48.653Z,-1.86
2022-12-19T02:18:27.429Z,-1.85
2022-12-19T02:21:30.777Z,-1.82
2022-12-19T02:24:42.381Z,-1.73
2022-12-19T02:27:40.316Z,-1.78
2022-12-19T02:30:11.687Z,-1.77
2022-12-19T02:32:50.002Z,-1.77
2022-12-19T02:35:28.628Z,-1.74
2022-12-19T02:38:06.766Z,-1.72
2022-12-19T02:40:43.270Z,-1.72
2022-12-19T02:43:16.733Z,-1.67
2022-12-19T02:45:46.225Z,-1.71
2022-12-19T02:48:19.434Z,-1.67
2022-12-19T02:50:50.145Z,-1.64
2022-12-19T02:53:23.540Z,-1.63
2022-12-19T02:56:12.226Z,-1.66
2022-12-19T02:58:52.513Z,-1.61
2022-12-19T03:01:31.834Z,-1.54
2022-12-19T03:04:11.287Z,-1.55
2022-12-19T03:06:49.066Z,-1.51
2022-12-19T03:09:25.651Z,-1.51
2022-12-19T03:12:02.554Z,-1.44
2022-12-19T03:14:32.348Z,-1.50
2022-12-19T03:17:05.681Z,-1.54
2022-12-19T03:19:35.675Z,-1.53
2022-12-19T03:22:03.201Z,-1.43
2022-12-19T03:24:31.078Z,-1.49
2022-12-19T03:27:06.438Z,-1.46
2022-12-19T03:29:39.144Z,-1.55
2022-12-19T03:32:11.446Z,-1.55
2022-12-19T03:34:45.232Z,-1.50
2022-12-19T03:37:16.679Z,-1.49
2022-12-19T03:39:47.541Z,-1.52
2022-12-19T03:42:35.377Z,-1.49
2022-12-19T03:45:05.662Z,-1.48
2022-12-19T03:47:38.835Z,-1.43
2022-12-19T03:50:09.419Z,-1.43
2022-12-19T03:52:46.120Z,-1.36
2022-12-19T03:55:17.545Z,-1.44
2022-12-19T03:57:51.408Z,-1.41
2022-12-19T04:00:19.667Z,-1.38
2022-12-19T04:02:52.265Z,-1.30
2022-12-19T04:05:24.080Z,-1.34
2022-12-19T04:07:55.204Z,-1.33
2022-12-19T04:10:27.171Z,-1.34
2022-12-19T04:13:00.053Z,-1.35
2022-12-19T04:15:36.771Z,-1.26
2022-12-19T04:18:07.871Z,-1.32
2022-12-19T04:20:41.101Z,-1.30
2022-12-19T04:23:15.912Z,-1.30
2022-12-19T04:25:48.661Z,-1.23
2022-12-19T04:28:21.030Z,-1.24
2022-12-19T04:30:49.955Z,-1.23
2022-12-19T04:33:17.607Z,-1.19
2022-12-19T04:35:46.564Z,-1.18
2022-12-19T04:38:14.154Z,-1.17
2022-12-19T04:40:41.912Z,-1.20
2022-12-19T04:43:09.896Z,-1.15
2022-12-19T04:45:37.735Z,-1.16
2022-12-19T04:48:05.752Z,-1.12
2022-12-19T04:50:35.974Z,-1.13
2022-12-19T04:53:05.068Z,-1.14
2022-12-19T04:55:32.772Z,-1.13
2022-12-19T04:58:06.137Z,-1.07
2022-12-19T05:00:34.107Z,-1.07
2022-12-19T05:03:01.931Z,-1.05
2022-12-19T05:05:29.722Z,-1.02
2022-12-19T05:08:00.353Z,-1.04
2022-12-19T05:10:29.251Z,-1.06
2022-12-19T05:12:56.734Z,-0.97
2022-12-19T05:15:24.467Z,-0.95
2022-12-19T05:17:52.121Z,-0.91
2022-12-19T05:20:19.641Z,-0.91
2022-12-19T05:22:47.210Z,-0.88
2022-12-19T05:25:14.954Z,-0.88
2022-12-19T05:27:43.860Z,-0.86
2022-12-19T05:30:12.418Z,-0.83
2022-12-19T05:32:39.960Z,-0.78
2022-12-19T05:35:08.353Z,-0.78
2022-12-19T05:37:35.977Z,-0.75
2022-12-19T05:40:03.498Z,-0.70
2022-12-19T05:42:31.000Z,-0.67
2022-12-19T05:44:59.892Z,-0.67
2022-12-19T05:47:27.438Z,-0.63
2022-12-19T05:49:54.958Z,-0.63
2022-12-19T05:52:23.011Z,-0.60
2022-12-19T05:54:50.660Z,-0.56
2022-12-19T05:57:18.196Z,-0.60
2022-12-19T05:59:45.720Z,-0.54
2022-12-19T06:02:14.658Z,-0.53
2022-12-19T06:04:42.353Z,-0.49
2022-12-19T06:07:10.116Z,-0.46
2022-12-19T06:09:38.151Z,-0.41
2022-12-19T06:12:06.133Z,-0.37
2022-12-19T06:14:34.130Z,-0.37
2022-12-19T06:17:01.755Z,-0.31
2022-12-19T06:19:31.306Z,-0.28
2022-12-19T06:21:58.889Z,-0.27
2022-12-19T06:24:26.770Z,-0.26
2022-12-19T06:26:54.334Z,-0.26
2022-12-19T06:29:21.863Z,-0.21
2022-12-19T06:31:49.864Z,-0.16
2022-12-19T06:34:39.454Z,-0.16
2022-12-19T06:37:08.380Z,0.07
2022-12-19T06:39:36.355Z,-0.03
2022-12-19T06:42:21.820Z,0.00
2022-12-19T06:44:49.459Z,0.03
2022-12-19T06:47:17.127Z,0.01
2022-12-19T06:49:44.653Z,0.08
2022-12-19T06:52:13.512Z,0.06
2022-12-19T06:54:41.261Z,0.13
2022-12-19T06:57:08.968Z,0.13
2022-12-19T06:59:36.465Z,0.20
2022-12-19T07:02:13.239Z,0.23
2022-12-19T07:04:44.675Z,0.25
2022-12-19T07:07:13.818Z,0.30
2022-12-19T07:09:41.965Z,0.22
2022-12-19T07:12:09.541Z,0.25
2022-12-19T07:14:37.093Z,0.28
2022-12-19T07:17:06.217Z,0.28
2022-12-19T07:19:34.828Z,0.30
2022-12-19T07:22:04.802Z,0.29
2022-12-19T07:24:35.657Z,0.34
2022-12-19T07:27:03.502Z,0.34
2022-12-19T07:29:30.993Z,0.32
2022-12-19T07:31:58.934Z,0.65
2022-12-19T07:34:26.544Z,0.58
2022-12-19T07:36:54.072Z,0.57
2022-12-19T07:39:22.735Z,0.50
2022-12-19T07:41:51.578Z,0.52
2022-12-19T07:44:30.331Z,0.42
2022-12-19T07:46:58.340Z,0.45
2022-12-19T07:49:25.852Z,0.42
2022-12-19T07:51:53.391Z,0.56
2022-12-19T07:54:20.983Z,0.53
2022-12-19T07:56:48.517Z,0.48
2022-12-19T07:59:17.680Z,0.49
2022-12-19T08:01:45.315Z,0.49
2022-12-19T08:04:13.150Z,0.44
2022-12-19T08:06:41.519Z,0.49
2022-12-19T08:09:09.348Z,0.48
2022-12-19T08:11:36.863Z,0.46
2022-12-19T08:14:04.739Z,0.55
2022-12-19T08:16:49.266Z,0.55
2022-12-19T08:19:24.700Z,0.59
2022-12-19T08:21:54.917Z,0.59
2022-12-19T08:24:22.488Z,0.57
2022-12-19T08:26:50.099Z,0.60
2022-12-19T08:29:17.667Z,0.64
2022-12-19T08:31:46.685Z,0.67
2022-12-19T08:34:14.208Z,0.62
2022-12-19T08:36:41.815Z,0.70
2022-12-19T08:39:09.569Z,0.70
2022-12-19T08:41:37.249Z,0.71
2022-12-19T08:44:04.961Z,0.73
2022-12-19T08:46:32.553Z,0.76
2022-12-19T08:49:01.632Z,0.78
2022-12-19T08:51:29.204Z,0.79
2022-12-19T08:53:56.768Z,0.79
2022-12-19T08:56:24.469Z,0.79
2022-12-19T08:58:52.769Z,0.82
2022-12-19T09:01:23.809Z,0.86
2022-12-19T09:05:28.861Z,0.81
2022-12-19T09:06:40.715Z,0.90
2022-12-19T09:09:08.478Z,0.93
2022-12-19T09:11:45.357Z,0.97
2022-12-19T09:14:21.202Z,0.95
2022-12-19T09:16:49.397Z,0.98
2022-12-19T09:19:16.994Z,1.00
2022-12-19T09:21:45.934Z,1.05
2022-12-19T09:24:13.482Z,1.02
2022-12-19T09:26:42.072Z,0.99
2022-12-19T09:29:20.083Z,1.00
2022-12-19T09:31:53.836Z,1.05
2022-12-19T09:34:24.911Z,1.02
2022-12-19T09:37:06.413Z,1.06
2022-12-19T09:39:34.868Z,1.07
2022-12-19T09:42:34.203Z,1.10
2022-12-19T09:45:31.585Z,1.15
2022-12-19T09:48:01.606Z,1.17
2022-12-19T09:50:45.910Z,1.19
2022-12-19T09:53:23.687Z,1.16
2022-12-19T09:55:53.836Z,1.13
2022-12-19T09:58:32.399Z,1.21
2022-12-19T10:01:03.366Z,1.21
2022-12-19T10:03:40.346Z,1.19
2022-12-19T10:07:11.128Z,1.21
2022-12-19T10:10:01.432Z,1.24
2022-12-19T10:12:45.273Z,1.34
2022-12-19T10:15:20.564Z,1.44
2022-12-19T10:18:05.382Z,1.36
2022-12-19T10:20:36.489Z,1.41
2022-12-19T10:23:18.714Z,1.42
2022-12-19T10:26:00.181Z,1.47
2022-12-19T10:28:44.020Z,1.48
2022-12-19T10:31:21.827Z,1.49
2022-12-19T10:33:58.182Z,1.54
2022-12-19T10:36:48.767Z,1.54
2022-12-19T10:39:22.214Z,1.61
2022-12-19T10:41:55.680Z,1.64
2022-12-19T10:44:26.689Z,1.67
2022-12-19T10:46:54.251Z,1.73
2022-12-19T10:49:23.564Z,1.74
2022-12-19T10:51:58.991Z,1.81
2022-12-19T10:54:37.941Z,1.85
2022-12-19T10:57:21.164Z,1.95
2022-12-19T10:59:56.618Z,2.00
2022-12-19T11:02:35.225Z,1.98
2022-12-19T11:05:04.534Z,2.02
2022-12-19T11:07:32.418Z,2.05
2022-12-19T11:10:32.951Z,2.06
2022-12-19T11:18:05.748Z,2.11
2022-12-19T11:22:17.331Z,2.10
2022-12-19T11:29:15.411Z,2.13
2022-12-19T11:29:45.797Z,2.14
2022-12-19T11:29:47.126Z,2.16
2022-12-19T11:30:34.364Z,2.18
2022-12-19T11:33:15.591Z,2.18
2022-12-19T11:35:49.254Z,2.20
2022-12-19T11:38:22.116Z,2.25
2022-12-19T11:40:53.968Z,2.25
2022-12-19T11:43:45.299Z,2.30
2022-12-19T11:46:25.843Z,2.33
2022-12-19T11:48:56.504Z,2.37
2022-12-19T11:51:31.234Z,2.36
2022-12-19T11:54:09.206Z,2.44
2022-12-19T11:56:36.781Z,2.43
2022-12-19T11:59:16.016Z,2.46
2022-12-19T12:01:59.212Z,2.46
2022-12-19T12:04:44.443Z,2.51
2022-12-19T12:07:34.211Z,2.58
2022-12-19T12:15:24.390Z,2.62
2022-12-19T12:24:58.624Z,2.61
2022-12-19T12:28:31.106Z,2.65
2022-12-19T12:31:16.421Z,2.70
2022-12-19T12:31:20.597Z,2.73
2022-12-19T12:31:42.239Z,2.77
2022-12-19T12:32:06.513Z,2.80
2022-12-19T12:35:13.513Z,2.79
2022-12-19T12:35:30.230Z,2.85
2022-12-19T12:39:48.605Z,2.89
2022-12-19T12:42:32.843Z,2.93
2022-12-19T12:45:02.428Z,2.94
2022-12-19T12:47:30.202Z,3.02
2022-12-19T12:50:01.720Z,3.08
2022-12-19T12:52:35.864Z,3.11
2022-12-19T12:55:05.482Z,3.17
2022-12-19T12:57:38.813Z,3.21
2022-12-19T13:00:20.693Z,3.23
2022-12-19T13:02:53.250Z,3.26
2022-12-19T13:05:33.429Z,3.34
2022-12-19T13:08:02.556Z,3.40
2022-12-19T13:10:32.564Z,3.45
2022-12-19T13:13:01.433Z,3.49
2022-12-19T13:15:38.456Z,3.54
2022-12-19T13:18:34.038Z,3.63
2022-12-19T13:21:04.365Z,3.66
2022-12-19T13:23:47.018Z,3.67
2022-12-19T13:26:36.821Z,3.76
2022-12-19T13:29:26.929Z,3.87
2022-12-19T13:32:09.056Z,3.98
2022-12-19T13:34:37.629Z,4.00
2022-12-19T13:39:49.333Z,4.03
2022-12-19T13:40:33.211Z,4.14
2022-12-19T13:43:27.475Z,4.22
2022-12-19T13:45:58.009Z,4.32
2022-12-19T13:48:31.322Z,4.30
2022-12-19T13:51:01.746Z,4.39
2022-12-19T13:53:30.481Z,4.50
2022-12-19T13:56:03.244Z,4.55
2022-12-19T13:58:33.069Z,4.58
2022-12-19T14:01:04.413Z,4.64
2022-12-19T14:03:37.547Z,4.67
2022-12-19T14:06:17.658Z,4.70
2022-12-19T14:09:41.548Z,4.75
2022-12-19T14:12:22.736Z,4.81
2022-12-19T14:14:48.675Z,4.87
2022-12-19T14:17:30.394Z,4.87
2022-12-19T14:20:15.489Z,4.93
2022-12-19T14:22:45.602Z,4.97
2022-12-19T14:27:51.729Z,5.01
2022-12-19T14:28:24.405Z,5.04
2022-12-19T14:30:58.968Z,5.07
2022-12-19T14:33:43.684Z,5.10
2022-12-19T14:36:26.207Z,5.10
2022-12-19T14:39:23.899Z,5.07
2022-12-19T14:42:04.101Z,5.04
2022-12-19T14:52:11.609Z,5.13
2022-12-19T14:52:34.686Z,5.11
2022-12-19T14:54:10.264Z,5.17
2022-12-19T14:54:50.653Z,5.18
2022-12-19T14:58:58.609Z,5.22
2022-12-19T15:01:29.575Z,5.29
2022-12-19T15:04:48.887Z,5.28
2022-12-19T15:07:09.248Z,5.25
2022-12-19T15:11:05.452Z,5.26
2022-12-19T15:14:04.045Z,5.36
2022-12-19T15:15:46.095Z,5.37
2022-12-19T15:18:22.023Z,5.42
2022-12-19T15:20:49.996Z,5.42
2022-12-19T15:23:22.061Z,5.48
2022-12-19T15:26:07.697Z,5.43
2022-12-19T15:28:39.425Z,5.43
2022-12-19T15:31:18.117Z,5.44
2022-12-19T15:34:32.176Z,5.45
2022-12-19T15:36:34.644Z,5.46
2022-12-19T15:39:03.559Z,5.51
2022-12-19T15:41:31.481Z,5.53
2022-12-19T15:44:04.223Z,5.57
2022-12-19T15:46:33.309Z,5.58
2022-12-19T15:49:02.419Z,5.62
2022-12-19T15:51:30.125Z,5.61
2022-12-19T15:54:22.188Z,5.61
2022-12-19T15:56:47.853Z,5.68
2022-12-19T15:59:24.383Z,5.66
2022-12-19T16:01:52.894Z,5.69
2022-12-19T16:04:23.153Z,5.70
2022-12-19T16:06:50.811Z,5.71
2022-12-19T16:09:21.048Z,5.71
2022-12-19T16:11:48.843Z,5.79
2022-12-19T16:14:17.078Z,5.80
2022-12-19T16:16:50.077Z,5.87
2022-12-19T16:19:26.518Z,5.91
2022-12-19T16:21:54.878Z,5.95
2022-12-19T16:24:23.060Z,5.92
2022-12-19T16:26:54.321Z,5.95
2022-12-19T16:29:24.972Z,6.00
2022-12-19T16:31:52.583Z,6.00
2022-12-19T16:34:22.508Z,6.04
2022-12-19T16:36:52.007Z,6.01
2022-12-19T16:39:19.597Z,6.02
2022-12-19T16:41:47.809Z,6.06
2022-12-19T16:44:20.213Z,6.14
2022-12-19T16:46:51.057Z,6.21
2022-12-19T16:49:22.708Z,6.15
2022-12-19T16:51:52.327Z,6.16
2022-12-19T16:54:21.639Z,6.13
2022-12-19T16:56:50.735Z,6.19
2022-12-19T16:59:21.367Z,6.23
2022-12-19T17:01:50.894Z,6.17
2022-12-19T17:04:21.447Z,6.26
2022-12-19T17:06:51.725Z,6.26
2022-12-19T17:09:23.125Z,6.29
2022-12-19T17:11:53.939Z,6.24
2022-12-19T17:14:23.538Z,6.25
2022-12-19T17:16:54.999Z,6.26
2022-12-19T17:19:24.663Z,6.30
2022-12-19T17:21:53.791Z,6.34
2022-12-19T17:24:21.359Z,6.32
2022-12-19T17:26:48.897Z,6.33
2022-12-19T17:29:16.508Z,6.48
2022-12-19T17:31:44.273Z,6.41
2022-12-19T17:34:18.731Z,6.39
2022-12-19T17:36:46.499Z,6.40
2022-12-19T17:39:23.879Z,6.47
2022-12-19T17:41:52.078Z,6.46
2022-12-19T17:44:19.944Z,6.45
2022-12-19T17:46:48.490Z,6.46
2022-12-19T17:49:18.218Z,6.44
2022-12-19T17:51:52.183Z,6.51
2022-12-19T17:54:19.982Z,6.56
2022-12-19T17:56:48.971Z,6.56
2022-12-19T17:59:16.504Z,6.54
2022-12-19T18:01:46.854Z,6.59
2022-12-19T18:04:17.399Z,6.56
2022-12-19T18:06:45.519Z,6.59
2022-12-19T18:09:19.662Z,6.63
2022-12-19T18:11:49.374Z,6.59
2022-12-19T18:14:17.328Z,6.50
2022-12-19T18:16:45.867Z,6.53
2022-12-19T18:19:18.155Z,6.49
2022-12-19T18:21:46.000Z,6.60
2022-12-19T18:24:14.689Z,6.55
2022-12-19T18:26:42.227Z,6.54
2022-12-19T18:29:11.466Z,6.50
2022-12-19T18:31:43.468Z,6.52
2022-12-19T18:34:20.008Z,6.46
2022-12-19T18:36:47.589Z,6.50
2022-12-19T18:39:21.475Z,6.46
2022-12-19T18:41:49.955Z,6.48
2022-12-19T18:44:19.150Z,6.50
2022-12-19T18:46:49.576Z,6.51
2022-12-19T18:49:18.217Z,6.45
2022-12-19T18:51:46.182Z,6.49
2022-12-19T18:54:14.782Z,6.49
2022-12-19T18:56:42.412Z,6.47
2022-12-19T18:59:10.919Z,6.52
2022-12-19T19:01:42.863Z,6.48
2022-12-19T19:04:12.988Z,6.45
2022-12-19T19:06:46.742Z,6.48
2022-12-19T19:09:19.233Z,6.54
2022-12-19T19:11:49.477Z,6.52
2022-12-19T19:14:17.039Z,6.53
2022-12-19T19:16:46.065Z,6.50
2022-12-19T19:19:17.413Z,6.52
2022-12-19T19:21:45.232Z,6.61
2022-12-19T19:24:15.742Z,6.55
2022-12-19T19:26:43.396Z,6.52
2022-12-19T19:29:10.945Z,6.51
2022-12-19T19:31:44.487Z,6.50
2022-12-19T19:34:16.298Z,6.57
2022-12-19T19:36:49.311Z,6.54
2022-12-19T19:39:19.709Z,6.58
2022-12-19T19:41:47.235Z,6.55
2022-12-19T19:44:14.790Z,6.49
2022-12-19T19:46:42.604Z,6.46
2022-12-19T19:49:10.388Z,6.42
2022-12-19T19:51:39.458Z,6.41
2022-12-19T19:54:07.097Z,6.45
2022-12-19T19:56:34.931Z,6.44
2022-12-19T19:59:02.583Z,6.45
2022-12-19T20:01:30.174Z,6.45
2022-12-19T20:03:57.954Z,6.44
2022-12-19T20:06:25.949Z,6.47
2022-12-19T20:08:54.886Z,6.52
2022-12-19T20:11:22.475Z,6.48
2022-12-19T20:13:50.037Z,6.52
2022-12-19T20:16:19.607Z,6.54
2022-12-19T20:18:49.814Z,6.55
2022-12-19T20:21:19.650Z,6.63
2022-12-19T20:23:47.167Z,6.58
2022-12-19T20:26:17.558Z,6.60
2022-12-19T20:28:48.921Z,6.59
2022-12-19T20:31:18.226Z,6.57
2022-12-19T20:33:46.180Z,6.54
2022-12-19T20:36:14.164Z,6.56
2022-12-19T20:38:42.085Z,6.56
2022-12-19T20:41:09.688Z,6.56
2022-12-19T20:43:38.997Z,6.60
2022-12-19T20:46:08.002Z,6.55
2022-12-19T20:48:35.946Z,6.55
2022-12-19T20:51:05.117Z,6.54
2022-12-19T20:53:33.586Z,6.57
2022-12-19T20:56:02.454Z,6.67
2022-12-19T20:58:32.691Z,6.63
2022-12-19T21:01:07.182Z,6.76
2022-12-19T21:03:35.257Z,6.71
2022-12-19T21:06:03.372Z,6.72
2022-12-19T21:08:31.131Z,6.68
2022-12-19T21:11:00.333Z,6.69
2022-12-19T21:13:28.005Z,6.75
2022-12-19T21:15:56.923Z,6.79
2022-12-19T21:18:26.514Z,6.87
2022-12-19T21:20:54.231Z,6.83
2022-12-19T21:23:22.471Z,6.86
2022-12-19T21:25:50.244Z,6.81
2022-12-19T21:28:18.149Z,6.81
2022-12-19T21:30:45.839Z,6.82
2022-12-19T21:33:13.406Z,6.82
2022-12-19T21:35:42.307Z,6.78
2022-12-19T21:38:09.807Z,6.69
2022-12-19T21:40:37.352Z,6.67
2022-12-19T21:43:11.424Z,6.68
2022-12-19T21:45:39.979Z,6.65
2022-12-19T21:48:07.627Z,6.56
2022-12-19T21:50:35.310Z,6.50
2022-12-19T21:53:04.249Z,6.58
2022-12-19T21:55:31.768Z,6.62
2022-12-19T21:58:00.555Z,6.58
2022-12-19T22:00:28.213Z,6.49
2022-12-19T22:03:13.282Z,6.51
2022-12-19T22:05:42.268Z,6.44
2022-12-19T22:08:11.923Z,6.45
2022-12-19T22:10:39.887Z,6.47
2022-12-19T22:13:07.436Z,6.41
2022-12-19T22:15:36.653Z,6.48
2022-12-19T22:18:04.532Z,6.46
2022-12-19T22:20:32.037Z,6.47
2022-12-19T22:22:59.591Z,6.47
2022-12-19T22:25:28.433Z,6.51
2022-12-19T22:27:56.317Z,6.48
2022-12-19T22:30:23.831Z,6.52
2022-12-19T22:32:51.386Z,6.42
2022-12-19T22:35:19.610Z,6.48
2022-12-19T22:37:47.207Z,6.46
2022-12-19T22:40:14.956Z,6.56
2022-12-19T22:42:43.819Z,6.68
2022-12-19T22:45:12.005Z,6.65
2022-12-19T22:47:42.127Z,6.67
2022-12-19T22:50:11.262Z,6.69
2022-12-19T22:52:39.130Z,6.74
2022-12-19T22:55:07.674Z,6.72
2022-12-19T22:57:35.294Z,6.70
2022-12-19T23:00:05.621Z,6.64
2022-12-19T23:02:33.379Z,6.61
2022-12-19T23:05:00.983Z,6.71
2022-12-19T23:07:28.521Z,6.71
2022-12-19T23:09:56.024Z,6.76
2022-12-19T23:12:23.552Z,6.70
2022-12-19T23:14:51.108Z,6.70
2022-12-19T23:17:20.059Z,6.78
2022-12-19T23:19:47.563Z,6.92
2022-12-19T23:22:15.263Z,6.78
2022-12-19T23:24:44.601Z,6.76
2022-12-19T23:27:12.127Z,6.72
2022-12-19T23:29:39.627Z,6.68
2022-12-19T23:32:07.503Z,6.65
2022-12-19T23:34:37.098Z,6.68
2022-12-19T23:37:12.693Z,6.71
2022-12-19T23:39:40.526Z,6.71
2022-12-19T23:42:08.092Z,6.74
2022-12-19T23:44:35.786Z,6.77
2022-12-19T23:47:04.147Z,6.77
2022-12-19T23:49:32.520Z,6.74
2022-12-19T23:52:01.875Z,6.75
2022-12-19T23:54:29.467Z,6.77
2022-12-19T23:56:57.062Z,6.77
2022-12-19T23:59:24.594Z,6.88
